Time;durP1;ratioP1;P1;durP2;ratioP2;P2;SDS_P1;SDS_P2;PMS_P1;PMS_P2;Temp;Humidity;BMP_temperature;BMP_pressure;BME280_temperature;BME280_humidity;BME280_pressure;Samples;Min_cycle;Max_cycle;Signal;HPM_P1;HPM_P2
2022/07/30 00:01:50;;;;;;;0.00;0.00;;;11.90;99.90;;;;;;4995658;28;20129;-73
2022/07/30 00:04:17;;;;;;;0.00;0.00;;;11.90;99.90;;;;;;4995211;28;20038;-73
2022/07/30 00:06:42;;;;;;;0.00;0.00;;;12.00;99.90;;;;;;4995566;28;20082;-73
2022/07/30 00:09:09;;;;;;;0.52;0.08;;;12.00;99.90;;;;;;4995530;28;20073;-73
2022/07/30 00:11:34;;;;;;;0.25;0.25;;;12.00;99.90;;;;;;4995239;28;20535;-73
2022/07/30 00:14:00;;;;;;;0.00;0.00;;;12.00;99.90;;;;;;4995342;28;20081;-73
2022/07/30 00:16:26;;;;;;;0.00;0.00;;;12.10;99.90;;;;;;4995411;28;20129;-73
2022/07/30 00:18:51;;;;;;;0.00;0.00;;;12.00;99.90;;;;;;4995242;28;20367;-73
2022/07/30 00:21:17;;;;;;;0.00;0.00;;;11.90;99.90;;;;;;4995320;28;20498;-73
2022/07/30 00:23:43;;;;;;;0.00;0.00;;;11.90;99.90;;;;;;4995211;28;20122;-73
2022/07/30 00:26:08;;;;;;;0.08;0.08;;;11.80;99.90;;;;;;4994622;28;20153;-73
2022/07/30 00:28:34;;;;;;;0.00;0.00;;;12.00;99.90;;;;;;4994853;28;20381;-73
2022/07/30 00:31:00;;;;;;;0.10;0.10;;;11.80;99.90;;;;;;4994902;28;20046;-73
2022/07/30 00:33:26;;;;;;;0.10;0.03;;;11.80;99.90;;;;;;4995061;28;20065;-73
2022/07/30 00:35:51;;;;;;;0.00;0.00;;;11.70;99.90;;;;;;4995242;28;20046;-73
2022/07/30 00:38:17;;;;;;;0.00;0.00;;;11.70;99.90;;;;;;4994990;28;20062;-73
2022/07/30 00:40:44;;;;;;;0.00;0.00;;;11.70;99.90;;;;;;4994928;28;20046;-73
2022/07/30 00:43:14;;;;;;;0.08;0.00;;;11.70;99.90;;;;;;4995014;28;20038;-73
2022/07/30 00:45:40;;;;;;;0.28;0.28;;;11.80;99.90;;;;;;4994759;28;20448;-73
2022/07/30 00:48:06;;;;;;;0.52;0.10;;;11.80;99.90;;;;;;4994617;28;20069;-73
2022/07/30 00:50:31;;;;;;;0.20;0.20;;;11.80;99.90;;;;;;4994832;28;20122;-73
2022/07/30 00:52:58;;;;;;;0.00;0.00;;;11.80;99.90;;;;;;4994767;28;20364;-73
2022/07/30 00:55:23;;;;;;;0.38;0.38;;;11.70;99.90;;;;;;4994554;28;20046;-73
2022/07/30 00:57:49;;;;;;;0.13;0.13;;;11.60;99.90;;;;;;4994875;28;20050;-73
2022/07/30 01:00:16;;;;;;;0.13;0.10;;;11.60;99.90;;;;;;4994094;28;20046;-73
2022/07/30 01:02:42;;;;;;;0.00;0.00;;;11.50;99.90;;;;;;4994713;28;20121;-73
2022/07/30 01:05:09;;;;;;;0.13;0.13;;;11.50;99.90;;;;;;4993330;28;20469;-73
2022/07/30 01:07:34;;;;;;;0.45;0.45;;;11.60;99.90;;;;;;4994306;28;20088;-73
2022/07/30 01:10:01;;;;;;;0.00;0.00;;;11.50;99.90;;;;;;4994305;28;20117;-73
2022/07/30 01:12:27;;;;;;;0.10;0.10;;;11.50;99.90;;;;;;4994489;28;20061;-73
2022/07/30 01:14:55;;;;;;;0.30;0.20;;;11.50;99.90;;;;;;4993977;28;20078;-73
2022/07/30 01:17:21;;;;;;;0.00;0.00;;;11.50;99.90;;;;;;4994373;28;20397;-73
2022/07/30 01:19:50;;;;;;;0.00;0.00;;;11.50;99.90;;;;;;4994054;28;20050;-73
2022/07/30 01:22:18;;;;;;;0.00;0.00;;;11.40;99.90;;;;;;4994232;28;20046;-73
2022/07/30 01:24:56;;;;;;;0.00;0.00;;;11.30;99.90;;;;;;4993950;28;20141;-73
2022/07/30 01:27:23;;;;;;;0.00;0.00;;;11.20;99.90;;;;;;4993006;28;20108;-73
2022/07/30 01:29:51;;;;;;;0.00;0.00;;;11.20;99.90;;;;;;4994276;28;20043;-73
2022/07/30 01:32:21;;;;;;;0.52;0.22;;;11.10;99.90;;;;;;4994475;28;20042;-73
2022/07/30 01:34:49;;;;;;;0.00;0.00;;;11.20;99.90;;;;;;4993709;28;20054;-73
2022/07/30 01:37:16;;;;;;;0.20;0.15;;;11.20;99.90;;;;;;4994128;28;20046;-73
2022/07/30 01:39:42;;;;;;;0.05;0.05;;;11.10;99.90;;;;;;4993480;28;20046;-73
2022/07/30 01:42:10;;;;;;;0.00;0.00;;;11.10;99.90;;;;;;4993857;28;20507;-73
2022/07/30 01:44:37;;;;;;;0.03;0.00;;;11.00;99.90;;;;;;4994135;28;20050;-73
2022/07/30 01:47:04;;;;;;;0.73;0.32;;;11.00;99.90;;;;;;4993769;28;20050;-73
2022/07/30 01:49:33;;;;;;;0.00;0.00;;;11.10;99.90;;;;;;4993827;28;20047;-73
2022/07/30 01:52:01;;;;;;;0.25;0.25;;;11.10;99.90;;;;;;4993753;28;20044;-73
2022/07/30 01:54:28;;;;;;;0.30;0.30;;;11.10;99.90;;;;;;4993740;28;20046;-73
2022/07/30 01:56:55;;;;;;;0.00;0.00;;;11.10;99.90;;;;;;4993739;28;20389;-73
2022/07/30 01:59:23;;;;;;;1.70;0.70;;;11.10;99.90;;;;;;4993733;28;20053;-73
2022/07/30 02:01:49;;;;;;;3.85;0.77;;;11.00;99.90;;;;;;4993532;28;20042;-73
2022/07/30 02:04:15;;;;;;;0.70;0.17;;;11.00;99.90;;;;;;4994018;28;20458;-73
2022/07/30 02:06:56;;;;;;;3.33;1.30;;;11.00;99.90;;;;;;4993562;28;20489;-73
2022/07/30 02:09:29;;;;;;;0.60;0.60;;;10.90;99.90;;;;;;4993543;28;20057;-73
2022/07/30 02:14:48;;;;;;;0.00;0.00;;;10.90;99.90;;;;;;4993516;28;20049;-73
2022/07/30 02:17:21;;;;;;;2.83;0.52;;;10.90;99.90;;;;;;4993619;28;20054;-73
2022/07/30 02:19:53;;;;;;;0.00;0.00;;;10.90;99.90;;;;;;4993422;28;20425;-73
2022/07/30 02:22:20;;;;;;;0.10;0.10;;;10.90;99.90;;;;;;4993711;28;20073;-73
2022/07/30 02:24:48;;;;;;;0.00;0.00;;;10.90;99.90;;;;;;4992161;28;20125;-73
2022/07/30 02:27:29;;;;;;;0.20;0.20;;;10.80;99.90;;;;;;4993732;28;20058;-73
2022/07/30 02:29:57;;;;;;;0.13;0.13;;;10.80;99.90;;;;;;4993513;28;20073;-73
2022/07/30 02:32:26;;;;;;;0.43;0.35;;;10.70;99.90;;;;;;4992183;28;20409;-73
2022/07/30 02:34:56;;;;;;;0.00;0.00;;;10.70;99.90;;;;;;4993205;28;20058;-73
2022/07/30 02:37:23;;;;;;;0.00;0.00;;;10.70;99.90;;;;;;4992176;28;20047;-73
2022/07/30 02:39:50;;;;;;;0.80;0.70;;;10.70;99.90;;;;;;4993381;28;20057;-73
2022/07/30 02:42:18;;;;;;;0.30;0.10;;;10.70;99.90;;;;;;4993531;28;20042;-73
2022/07/30 02:44:45;;;;;;;0.30;0.17;;;10.70;99.90;;;;;;4993266;28;20551;-73
2022/07/30 02:47:15;;;;;;;0.45;0.43;;;10.60;99.90;;;;;;4993403;28;20096;-73
2022/07/30 02:49:42;;;;;;;0.20;0.20;;;10.70;99.90;;;;;;4993923;28;20358;-73
2022/07/30 02:52:12;;;;;;;0.17;0.17;;;10.60;99.90;;;;;;4997231;28;20050;-73
2022/07/30 02:54:40;;;;;;;1.90;0.50;;;10.70;99.90;;;;;;4996659;28;20104;-73
2022/07/30 02:57:08;;;;;;;1.27;0.90;;;10.60;99.90;;;;;;4996781;28;20482;-73
2022/07/30 02:59:36;;;;;;;0.30;0.20;;;10.60;99.90;;;;;;4996799;28;20053;-73
2022/07/30 03:02:03;;;;;;;0.43;0.25;;;10.60;99.90;;;;;;4995377;28;20050;-73
2022/07/30 03:04:30;;;;;;;0.10;0.10;;;10.60;99.90;;;;;;4996478;28;20107;-73
2022/07/30 03:06:58;;;;;;;0.00;0.00;;;10.60;99.90;;;;;;4996791;28;20093;-73
2022/07/30 03:09:25;;;;;;;0.03;0.03;;;10.60;99.90;;;;;;4996765;28;20042;-73
2022/07/30 03:11:51;;;;;;;1.90;0.43;;;10.60;99.90;;;;;;4996456;28;20058;-73
2022/07/30 03:14:17;;;;;;;0.00;0.00;;;10.50;99.90;;;;;;4996404;28;20049;-73
2022/07/30 03:16:47;;;;;;;0.52;0.47;;;10.60;99.90;;;;;;4996614;28;20121;-73
2022/07/30 03:19:16;;;;;;;0.00;0.00;;;10.60;99.90;;;;;;4996439;28;20054;-73
2022/07/30 03:21:43;;;;;;;0.00;0.00;;;10.50;99.90;;;;;;4996392;28;20047;-74
2022/07/30 03:24:12;;;;;;;0.00;0.00;;;10.50;99.90;;;;;;4996272;28;20085;-73
2022/07/30 03:26:40;;;;;;;0.00;0.00;;;10.50;99.90;;;;;;4996302;28;20038;-73
2022/07/30 03:29:07;;;;;;;0.28;0.10;;;10.40;99.90;;;;;;4996402;28;20034;-73
2022/07/30 03:31:34;;;;;;;0.10;0.10;;;10.40;99.90;;;;;;4996226;28;20416;-73
2022/07/30 03:34:01;;;;;;;0.20;0.20;;;10.30;99.90;;;;;;4994869;28;20061;-74
2022/07/30 03:36:28;;;;;;;0.13;0.13;;;10.30;99.90;;;;;;4996153;28;20077;-74
2022/07/30 03:38:54;;;;;;;0.85;0.10;;;10.30;99.90;;;;;;4995756;28;20069;-74
2022/07/30 03:41:21;;;;;;;0.10;0.10;;;10.40;99.90;;;;;;4995876;28;20046;-73
2022/07/30 03:43:47;;;;;;;1.67;0.63;;;10.40;99.90;;;;;;4996062;28;20129;-73
2022/07/30 03:46:15;;;;;;;0.00;0.00;;;10.40;99.90;;;;;;4995947;28;20066;-73
2022/07/30 03:48:42;;;;;;;0.03;0.03;;;10.40;99.90;;;;;;4994756;28;20389;-74
2022/07/30 03:51:09;;;;;;;1.20;0.73;;;10.40;99.90;;;;;;4994502;28;20046;-73
2022/07/30 03:53:35;;;;;;;0.47;0.43;;;10.40;99.90;;;;;;4995638;28;20038;-73
2022/07/30 03:56:01;;;;;;;0.38;0.38;;;10.40;99.90;;;;;;4995985;28;20034;-73
2022/07/30 03:58:27;;;;;;;0.08;0.08;;;10.50;99.90;;;;;;4995903;28;20045;-74
2022/07/30 04:00:53;;;;;;;0.55;0.52;;;10.40;99.90;;;;;;4995239;28;20501;-73
2022/07/30 04:03:29;;;;;;;0.60;0.47;;;10.40;99.90;;;;;;4995535;28;20505;-74
2022/07/30 04:05:55;;;;;;;;;;;10.40;99.90;;;;;;4995822;28;20057;-74
2022/07/30 04:08:20;;;;;;;0.00;0.00;;;10.40;99.90;;;;;;4995493;28;19921;-74
2022/07/30 04:10:47;;;;;;;1.55;0.88;;;10.40;99.90;;;;;;4995493;28;20038;-73
2022/07/30 04:13:12;;;;;;;0.77;0.10;;;10.50;99.90;;;;;;4995465;28;20042;-73
2022/07/30 04:15:50;;;;;;;0.17;0.10;;;10.50;99.90;;;;;;4995297;28;20046;-74
2022/07/30 04:18:17;;;;;;;0.00;0.00;;;10.50;99.90;;;;;;4995210;28;20051;-73
2022/07/30 04:20:47;;;;;;;0.08;0.08;;;10.50;99.90;;;;;;4993893;28;20392;-74
2022/07/30 04:23:14;;;;;;;0.00;0.00;;;10.60;99.90;;;;;;4995201;28;20043;-74
2022/07/30 04:25:42;;;;;;;0.68;0.45;;;10.60;99.90;;;;;;4995198;28;20054;-74
2022/07/30 04:28:09;;;;;;;0.22;0.20;;;10.60;99.90;;;;;;4995211;28;20432;-74
2022/07/30 04:30:36;;;;;;;0.17;0.17;;;10.60;99.90;;;;;;4994804;28;20453;-73
2022/07/30 04:33:06;;;;;;;0.30;0.20;;;10.70;99.90;;;;;;4995019;28;20046;-74
2022/07/30 04:35:33;;;;;;;0.22;0.22;;;10.80;99.90;;;;;;4994678;28;20124;-73
2022/07/30 04:38:01;;;;;;;0.20;0.20;;;10.80;99.90;;;;;;4994889;28;20049;-74
2022/07/30 04:40:27;;;;;;;0.65;0.47;;;10.90;99.90;;;;;;4994795;28;20451;-74
2022/07/30 04:42:52;;;;;;;0.45;0.38;;;11.00;99.90;;;;;;4994865;28;20122;-74
2022/07/30 04:45:21;;;;;;;0.40;0.35;;;11.00;99.90;;;;;;4994770;28;20052;-74
2022/07/30 04:47:46;;;;;;;0.35;0.30;;;11.10;99.90;;;;;;4994475;28;20050;-73
2022/07/30 04:50:14;;;;;;;0.00;0.00;;;11.20;99.90;;;;;;4994682;28;20075;-74
2022/07/30 04:52:40;;;;;;;0.13;0.13;;;11.30;99.90;;;;;;4994679;28;20377;-74
2022/07/30 04:55:08;;;;;;;0.93;0.30;;;11.40;99.90;;;;;;4994584;28;20046;-74
2022/07/30 04:57:37;;;;;;;0.77;0.20;;;11.50;99.90;;;;;;4994839;28;20069;-74
2022/07/30 05:00:05;;;;;;;0.10;0.10;;;11.60;99.90;;;;;;4994184;28;20133;-74
2022/07/30 05:02:33;;;;;;;0.00;0.00;;;11.70;99.90;;;;;;4994448;28;20465;-74
2022/07/30 05:05:00;;;;;;;0.30;0.30;;;11.80;99.90;;;;;;4994344;28;20058;-74
2022/07/30 05:07:26;;;;;;;0.00;0.00;;;11.90;99.90;;;;;;4994475;28;20129;-74
2022/07/30 05:09:52;;;;;;;0.28;0.22;;;12.10;99.90;;;;;;4993218;28;20122;-74
2022/07/30 05:12:17;;;;;;;0.30;0.30;;;12.30;99.90;;;;;;4994125;28;20038;-74
2022/07/30 05:14:43;;;;;;;0.88;0.70;;;12.40;99.90;;;;;;4994012;28;20050;-74
2022/07/30 05:17:08;;;;;;;0.38;0.38;;;12.50;99.90;;;;;;4994286;28;20089;-74
2022/07/30 05:19:34;;;;;;;1.33;1.23;;;12.60;99.90;;;;;;4994099;28;20054;-74
2022/07/30 05:22:00;;;;;;;0.03;0.03;;;12.70;99.90;;;;;;4994125;28;20046;-74
2022/07/30 05:24:26;;;;;;;0.93;0.30;;;12.80;99.90;;;;;;4994300;28;20082;-74
2022/07/30 05:26:51;;;;;;;0.38;0.32;;;13.10;99.90;;;;;;4993999;28;20078;-74
2022/07/30 05:29:17;;;;;;;0.30;0.30;;;13.40;99.90;;;;;;4993870;28;20050;-74
2022/07/30 05:31:43;;;;;;;0.38;0.38;;;13.70;99.90;;;;;;4994029;28;20061;-74
2022/07/30 05:34:08;;;;;;;1.85;1.17;;;13.90;99.90;;;;;;4993591;28;20069;-74
2022/07/30 05:36:34;;;;;;;1.50;1.30;;;14.20;99.90;;;;;;4993929;28;20485;-74
2022/07/30 05:39:00;;;;;;;0.20;0.20;;;14.80;99.90;;;;;;4993823;28;20042;-74
2022/07/30 05:41:28;;;;;;;0.40;0.40;;;15.40;99.90;;;;;;4992437;28;20483;-74
2022/07/30 05:43:55;;;;;;;0.47;0.47;;;16.10;99.90;;;;;;4993816;28;20039;-74
2022/07/30 05:46:21;;;;;;;1.33;1.15;;;16.70;99.90;;;;;;4993821;28;20042;-74
2022/07/30 05:48:46;;;;;;;1.55;1.10;;;17.20;99.90;;;;;;4993807;28;20057;-74
2022/07/30 05:51:12;;;;;;;0.30;0.22;;;17.70;99.90;;;;;;4993886;28;20117;-74
2022/07/30 05:53:37;;;;;;;1.35;0.93;;;18.30;99.90;;;;;;4992823;28;20042;-74
2022/07/30 05:56:03;;;;;;;0.10;0.10;;;18.60;99.90;;;;;;4993732;28;20052;-74
2022/07/30 05:58:29;;;;;;;1.83;1.23;;;19.10;99.90;;;;;;4992534;28;20054;-74
2022/07/30 06:00:54;;;;;;;1.63;1.02;;;19.30;99.90;;;;;;4993500;28;20065;-75
2022/07/30 06:03:20;;;;;;;1.17;0.85;;;19.80;99.90;;;;;;4993828;28;20138;-74
2022/07/30 06:05:46;;;;;;;1.00;0.90;;;20.20;99.90;;;;;;4993875;28;20069;-74
2022/07/30 06:08:12;;;;;;;0.28;0.28;;;20.70;99.90;;;;;;4993758;28;20057;-74
2022/07/30 06:10:37;;;;;;;0.95;0.80;;;21.20;99.90;;;;;;4993756;28;20081;-74
2022/07/30 06:13:03;;;;;;;1.40;0.43;;;21.30;99.90;;;;;;4993817;28;20042;-74
2022/07/30 06:15:28;;;;;;;0.38;0.38;;;21.40;99.90;;;;;;4993811;28;20038;-74
2022/07/30 06:17:54;;;;;;;1.08;0.65;;;21.60;99.90;;;;;;4993854;28;20105;-75
2022/07/30 06:20:20;;;;;;;2.65;0.50;;;21.70;99.90;;;;;;4993498;28;20046;-75
2022/07/30 06:22:46;;;;;;;0.28;0.28;;;22.00;99.90;;;;;;4993514;28;20539;-75
2022/07/30 06:25:12;;;;;;;1.15;1.02;;;22.30;99.90;;;;;;4994721;28;20046;-75
2022/07/30 06:27:38;;;;;;;0.70;0.45;;;22.40;99.90;;;;;;4997133;28;20493;-74
2022/07/30 06:30:06;;;;;;;0.20;0.13;;;22.80;99.90;;;;;;4997327;28;20052;-75
2022/07/30 06:32:32;;;;;;;0.47;0.47;;;23.20;99.90;;;;;;4980134;28;20054;-75
2022/07/30 06:34:58;;;;;;;0.95;0.60;;;23.50;99.90;;;;;;4995805;28;20081;-74
2022/07/30 06:37:23;;;;;;;0.55;0.55;;;23.70;99.90;;;;;;4996940;28;20038;-75
2022/07/30 06:39:49;;;;;;;1.63;0.73;;;23.90;99.90;;;;;;4997159;28;20034;-75
2022/07/30 06:42:14;;;;;;;0.45;0.40;;;24.10;99.90;;;;;;4995661;28;20046;-75
2022/07/30 06:44:40;;;;;;;0.73;0.73;;;24.20;99.90;;;;;;4996983;28;20105;-75
2022/07/30 06:47:06;;;;;;;0.20;0.15;;;24.40;99.90;;;;;;4996856;28;20121;-75
2022/07/30 06:49:32;;;;;;;2.30;1.25;;;24.30;98.00;;;;;;4996977;28;20078;-75
2022/07/30 06:51:57;;;;;;;0.77;0.65;;;24.00;97.30;;;;;;4997233;28;20125;-75
2022/07/30 06:54:23;;;;;;;0.60;0.50;;;24.40;98.10;;;;;;4996773;28;20078;-75
2022/07/30 06:56:49;;;;;;;0.63;0.38;;;24.80;99.40;;;;;;4996801;28;20080;-75
2022/07/30 06:59:15;;;;;;;0.50;0.45;;;24.80;97.60;;;;;;4996853;28;20085;-75
2022/07/30 07:01:40;;;;;;;0.10;0.10;;;25.20;98.70;;;;;;4996572;28;20078;-75
2022/07/30 07:04:06;;;;;;;7.75;0.88;;;25.60;91.60;;;;;;4996732;28;20120;-75
2022/07/30 07:06:32;;;;;;;9.50;1.42;;;25.60;96.20;;;;;;4996898;28;20046;-75
2022/07/30 07:08:58;;;;;;;0.00;0.00;;;25.50;95.70;;;;;;4996401;28;20548;-75
2022/07/30 07:11:24;;;;;;;0.03;0.03;;;25.50;95.40;;;;;;4996631;28;20409;-75
2022/07/30 07:13:49;;;;;;;0.80;0.55;;;25.00;98.40;;;;;;4996404;28;20057;-75
2022/07/30 07:16:15;;;;;;;1.02;0.82;;;24.70;99.90;;;;;;4996525;28;20117;-75
2022/07/30 07:18:41;;;;;;;0.40;0.35;;;25.50;99.90;;;;;;4996374;28;20545;-75
2022/07/30 07:21:07;;;;;;;0.10;0.10;;;26.10;95.40;;;;;;4996272;28;20054;-75
2022/07/30 07:23:33;;;;;;;0.40;0.40;;;26.00;94.70;;;;;;4996029;28;20077;-72
2022/07/30 07:25:59;;;;;;;1.65;0.98;;;26.00;92.90;;;;;;4996392;28;20470;-72
2022/07/30 07:28:25;;;;;;;0.32;0.20;;;25.70;97.00;;;;;;4996457;28;20046;-73
2022/07/30 07:30:50;;;;;;;0.93;0.57;;;26.20;91.10;;;;;;4996139;28;20547;-72
2022/07/30 07:33:16;;;;;;;0.15;0.13;;;26.40;92.90;;;;;;4995953;28;20070;-72
2022/07/30 07:35:42;;;;;;;0.30;0.30;;;27.00;85.50;;;;;;4995213;28;20112;-72
2022/07/30 07:38:08;;;;;;;0.35;0.05;;;27.40;74.60;;;;;;4995955;28;20057;-72
2022/07/30 07:40:33;;;;;;;0.75;0.40;;;27.30;73.00;;;;;;4995809;28;20046;-72
2022/07/30 07:42:59;;;;;;;0.25;0.25;;;27.60;77.70;;;;;;4995810;28;20061;-72
2022/07/30 07:45:24;;;;;;;0.47;0.30;;;27.60;61.70;;;;;;4996043;28;20047;-73
2022/07/30 07:47:50;;;;;;;1.10;0.52;;;27.30;61.40;;;;;;4995668;28;20100;-73
2022/07/30 07:50:17;;;;;;;0.25;0.20;;;27.20;68.40;;;;;;4995959;28;20042;-72
2022/07/30 07:52:43;;;;;;;0.00;0.00;;;27.70;57.70;;;;;;4994350;28;20058;-72
2022/07/30 07:55:09;;;;;;;0.35;0.35;;;28.10;52.70;;;;;;4995941;28;20034;-72
2022/07/30 07:57:42;;;;;;;0.40;0.40;;;28.50;54.40;;;;;;4995872;28;20040;-72
2022/07/30 08:00:10;;;;;;;0.75;0.30;;;28.20;34.50;;;;;;4995530;28;20122;-72
2022/07/30 08:02:36;;;;;;;0.15;0.13;;;28.10;41.00;;;;;;4995624;28;20039;-72
2022/07/30 08:05:04;;;;;;;0.43;0.32;;;28.70;40.40;;;;;;4995335;28;20077;-73
2022/07/30 08:07:30;;;;;;;0.93;0.50;;;29.00;40.50;;;;;;4995584;28;20056;-72
2022/07/30 08:09:56;;;;;;;1.67;0.98;;;28.90;26.50;;;;;;4995687;28;20081;-72
2022/07/30 08:12:22;;;;;;;0.73;0.65;;;28.40;32.00;;;;;;4995756;28;20448;-75
2022/07/30 08:14:48;;;;;;;0.80;0.40;;;28.40;32.50;;;;;;4995469;28;20114;-73
2022/07/30 08:17:14;;;;;;;0.82;0.38;;;28.50;30.80;;;;;;4995468;28;20370;-73
2022/07/30 08:19:39;;;;;;;1.02;0.28;;;27.90;35.20;;;;;;4995359;28;20230;-73
2022/07/30 08:22:05;;;;;;;0.65;0.20;;;27.90;28.70;;;;;;4995392;28;20101;-72
2022/07/30 08:24:31;;;;;;;0.13;0.13;;;27.90;33.20;;;;;;4995278;28;20081;-73
2022/07/30 08:26:57;;;;;;;0.00;0.00;;;28.50;33.30;;;;;;4995380;28;20125;-73
2022/07/30 08:29:22;;;;;;;2.80;0.63;;;28.50;29.40;;;;;;4995508;28;20164;-74
2022/07/30 08:31:48;;;;;;;6.32;0.85;;;28.40;23.70;;;;;;4995355;28;20053;-73
2022/07/30 08:34:13;;;;;;;0.43;0.30;;;28.00;23.70;;;;;;4994897;28;20112;-74
2022/07/30 08:36:39;;;;;;;0.65;0.35;;;27.00;33.00;;;;;;4995108;28;20073;-73
2022/07/30 08:39:05;;;;;;;4.78;0.77;;;27.00;38.40;;;;;;4994926;28;20162;-74
2022/07/30 08:41:31;;;;;;;16.83;1.60;;;27.20;36.00;;;;;;4993543;28;20473;-74
2022/07/30 08:43:59;;;;;;;1.02;0.90;;;27.40;35.00;;;;;;4995023;28;20043;-73
2022/07/30 08:46:29;;;;;;;0.88;0.60;;;27.70;29.30;;;;;;4994968;28;20101;-73
2022/07/30 08:48:55;;;;;;;1.45;0.88;;;27.60;31.80;;;;;;4994092;28;20043;-73
2022/07/30 08:51:22;;;;;;;0.73;0.65;;;27.40;34.10;;;;;;4995082;28;20129;-73
2022/07/30 08:53:49;;;;;;;0.60;0.45;;;27.90;32.00;;;;;;4995709;28;20104;-73
2022/07/30 08:56:15;;;;;;;0.47;0.45;;;27.70;30.70;;;;;;4995175;28;20174;-73
2022/07/30 08:58:41;;;;;;;0.40;0.25;;;28.20;24.60;;;;;;4994935;28;20058;-74
2022/07/30 09:01:07;;;;;;;0.20;0.10;;;28.40;26.50;;;;;;4994581;28;20069;-73
2022/07/30 09:03:34;;;;;;;0.57;0.55;;;27.90;21.20;;;;;;4994871;28;20473;-73
2022/07/30 09:06:01;;;;;;;6.13;1.02;;;28.40;21.90;;;;;;4994685;28;20073;-74
2022/07/30 09:08:27;;;;;;;1.33;0.88;;;28.50;22.90;;;;;;4993744;28;20049;-73
2022/07/30 09:10:52;;;;;;;0.25;0.22;;;28.70;17.30;;;;;;4994735;28;20050;-73
2022/07/30 09:13:36;;;;;;;0.10;0.10;;;29.30;9.90;;;;;;4994658;28;20491;-73
2022/07/30 09:16:04;;;;;;;0.00;0.00;;;28.90;8.20;;;;;;4995104;28;20373;-73
2022/07/30 09:18:37;;;;;;;0.32;0.20;;;28.90;5.00;;;;;;4994791;28;20054;-73
2022/07/30 09:21:24;;;;;;;0.15;0.08;;;29.00;8.50;;;;;;4994814;28;20050;-73
2022/07/30 09:24:01;;;;;;;1.15;0.30;;;29.30;6.60;;;;;;4995102;28;20057;-73
2022/07/30 09:26:29;;;;;;;0.17;0.17;;;29.80;5.70;;;;;;4995215;28;20474;-73
2022/07/30 09:29:13;;;;;;;0.40;0.30;;;29.80;5.20;;;;;;4994957;28;20047;-73
2022/07/30 09:32:02;;;;;;;0.13;0.13;;;29.80;2.90;;;;;;4994612;28;20485;-73
2022/07/30 09:34:31;;;;;;;0.50;0.40;;;29.40;4.10;;;;;;4994553;28;20445;-73
2022/07/30 09:37:02;;;;;;;0.93;0.55;;;28.80;6.30;;;;;;4995048;28;20042;-73
2022/07/30 09:39:39;;;;;;;0.32;0.20;;;28.50;6.70;;;;;;4994067;28;20046;-73
2022/07/30 09:42:24;;;;;;;0.00;0.00;;;29.10;8.10;;;;;;4992945;28;20436;-73
2022/07/30 09:44:51;;;;;;;0.00;0.00;;;29.30;2.70;;;;;;4994586;28;20129;-73
2022/07/30 09:47:40;;;;;;;0.08;0.08;;;29.20;4.80;;;;;;4994678;28;20050;-73
2022/07/30 09:50:08;;;;;;;0.82;0.40;;;28.80;6.20;;;;;;4994756;28;20080;-73
2022/07/30 09:52:36;;;;;;;0.40;0.40;;;28.60;8.00;;;;;;4994657;28;20042;-73
2022/07/30 09:55:01;;;;;;;17.95;1.20;;;28.50;9.60;;;;;;4994192;28;20472;-73
2022/07/30 09:57:27;;;;;;;1.85;0.68;;;28.30;8.40;;;;;;4994629;28;20086;-74
2022/07/30 09:59:54;;;;;;;0.38;0.28;;;27.70;5.20;;;;;;4996447;28;20180;-73
2022/07/30 10:02:27;;;;;;;0.25;0.13;;;27.40;9.00;;;;;;4997346;28;20038;-74
2022/07/30 10:04:52;;;;;;;0.20;0.10;;;27.60;13.10;;;;;;4998711;28;20089;-74
2022/07/30 10:07:20;;;;;;;0.85;0.30;;;27.70;9.20;;;;;;4997366;28;20438;-73
2022/07/30 10:09:47;;;;;;;0.52;0.35;;;27.50;9.60;;;;;;4998105;28;20129;-73
2022/07/30 10:12:14;;;;;;;0.00;0.00;;;27.60;13.00;;;;;;4996879;28;20042;-73
2022/07/30 10:14:44;;;;;;;0.03;0.03;;;27.80;9.50;;;;;;4998102;28;20481;-73
2022/07/30 10:17:11;;;;;;;1.00;0.40;;;28.00;7.60;;;;;;4998722;28;20485;-74
2022/07/30 10:19:38;;;;;;;0.55;0.43;;;28.00;6.80;;;;;;4998624;28;20108;-74
2022/07/30 10:22:04;;;;;;;1.05;0.55;;;27.80;8.50;;;;;;4998473;28;20096;-74
2022/07/30 10:24:32;;;;;;;0.28;0.28;;;27.90;6.90;;;;;;4998062;28;20045;-73
2022/07/30 10:26:57;;;;;;;0.38;0.25;;;27.90;6.50;;;;;;4998587;28;20061;-74
2022/07/30 10:29:23;;;;;;;0.40;0.40;;;27.90;8.80;;;;;;4998732;28;20038;-73
2022/07/30 10:31:50;;;;;;;0.00;0.00;;;27.80;8.20;;;;;;4998173;28;20055;-73
2022/07/30 10:34:18;;;;;;;0.30;0.20;;;28.30;10.30;;;;;;4998536;28;20087;-73
2022/07/30 10:36:51;;;;;;;0.32;0.25;;;28.40;6.50;;;;;;4997784;28;20058;-73
2022/07/30 10:39:24;;;;;;;0.03;0.03;;;28.50;1.60;;;;;;4996521;28;20054;-73
2022/07/30 10:42:27;;;;;;;0.43;0.43;;;28.00;2.10;;;;;;4996580;28;20042;-74
2022/07/30 10:45:13;;;;;;;0.00;0.00;;;27.90;2.90;;;;;;4998149;28;20054;-74
2022/07/30 10:47:41;;;;;;;0.20;0.20;;;28.20;4.60;;;;;;4998785;28;20047;-73
2022/07/30 10:50:10;;;;;;;2.53;0.52;;;28.30;7.00;;;;;;4998272;28;20042;-74
2022/07/30 10:52:45;;;;;;;0.10;0.10;;;28.90;2.40;;;;;;4998327;28;20350;-73
2022/07/30 10:55:14;;;;;;;0.20;0.20;;;29.40;1.00;;;;;;4998252;28;20085;-73
2022/07/30 10:58:00;;;;;;;1.13;0.57;;;29.40;1.00;;;;;;4999238;28;20061;-73
2022/07/30 11:00:27;;;;;;;0.43;0.40;;;29.40;1.00;;;;;;4998169;28;20181;-74
2022/07/30 11:03:19;;;;;;;0.63;0.52;;;29.70;1.00;;;;;;4998095;28;20060;-74
2022/07/30 11:05:46;;;;;;;0.10;0.10;;;30.00;1.00;;;;;;4998100;28;20057;-74
2022/07/30 11:08:28;;;;;;;0.90;0.70;;;30.10;1.00;;;;;;4997766;28;20046;-73
2022/07/30 11:10:54;;;;;;;0.10;0.10;;;29.60;1.00;;;;;;4997363;28;20140;-73
2022/07/30 11:13:56;;;;;;;0.32;0.13;;;29.10;1.00;;;;;;4998673;28;20039;-73
2022/07/30 11:16:30;;;;;;;0.32;0.32;;;28.90;1.00;;;;;;4998578;28;20046;-73
2022/07/30 11:19:03;;;;;;;1.77;0.40;;;28.30;1.00;;;;;;4998415;28;20047;-73
2022/07/30 11:21:30;;;;;;;0.40;0.30;;;28.30;1.00;;;;;;4997572;28;20093;-73
2022/07/30 11:23:57;;;;;;;0.25;0.17;;;28.40;1.00;;;;;;4997409;28;20540;-74
2022/07/30 11:26:38;;;;;;;0.03;0.03;;;29.00;1.00;;;;;;4997563;28;20054;-73
2022/07/30 11:29:27;;;;;;;0.70;0.32;;;29.60;1.00;;;;;;4998004;28;20042;-74
2022/07/30 11:31:55;;;;;;;0.00;0.00;;;30.20;1.00;;;;;;4997497;28;20078;-74
2022/07/30 11:34:22;;;;;;;0.10;0.10;;;31.20;1.00;;;;;;4997574;28;20062;-73
2022/07/30 11:37:07;;;;;;;0.55;0.50;;;31.70;1.00;;;;;;4997314;28;20046;-74
2022/07/30 11:39:52;;;;;;;;;;;31.80;1.00;;;;;;4997327;28;20046;-73
2022/07/30 11:42:31;;;;;;;1.08;0.22;;;31.80;1.00;;;;;;4996837;28;19929;-74
2022/07/30 11:45:15;;;;;;;2.45;0.32;;;31.80;1.00;;;;;;4997006;28;20089;-73
2022/07/30 11:47:46;;;;;;;0.10;0.10;;;32.40;1.00;;;;;;4996310;28;20085;-73
2022/07/30 11:50:25;;;;;;;0.00;0.00;;;32.60;1.00;;;;;;4996945;28;20038;-74
2022/07/30 11:52:51;;;;;;;0.45;0.38;;;33.10;1.00;;;;;;4996482;28;20039;-74
2022/07/30 11:55:35;;;;;;;0.52;0.40;;;32.50;1.00;;;;;;4996621;28;20065;-74
2022/07/30 11:58:03;;;;;;;0.00;0.00;;;32.00;1.00;;;;;;4997115;28;20081;-74
2022/07/30 12:00:40;;;;;;;7.95;1.13;;;32.30;1.00;;;;;;4996703;28;20054;-74
2022/07/30 12:03:08;;;;;;;0.75;0.45;;;32.90;1.00;;;;;;4997444;28;20111;-73
2022/07/30 12:05:33;;;;;;;0.17;0.17;;;32.30;1.00;;;;;;4997219;28;20125;-74
2022/07/30 12:07:59;;;;;;;0.05;0.03;;;32.80;1.00;;;;;;4997165;28;20084;-74
2022/07/30 12:10:25;;;;;;;0.20;0.10;;;33.40;1.00;;;;;;4996520;28;20038;-74
2022/07/30 12:12:50;;;;;;;1.65;0.45;;;33.80;1.00;;;;;;4996639;28;20034;-73
2022/07/30 12:15:33;;;;;;;0.00;0.00;;;33.90;1.00;;;;;;4997195;28;20097;-73
2022/07/30 12:17:59;;;;;;;0.10;0.10;;;33.60;1.00;;;;;;4997732;28;20170;-74
2022/07/30 12:20:26;;;;;;;0.95;0.65;;;32.60;1.00;;;;;;4997530;28;20062;-73
2022/07/30 12:22:52;;;;;;;0.17;0.10;;;31.90;1.00;;;;;;4996653;28;20449;-74
2022/07/30 12:25:17;;;;;;;1.27;0.47;;;31.90;1.00;;;;;;4996911;28;20050;-74
2022/07/30 12:27:47;;;;;;;0.15;0.10;;;31.40;1.00;;;;;;4996482;28;20042;-74
2022/07/30 12:30:14;;;;;;;2.38;0.73;;;30.20;1.00;;;;;;4996332;28;20047;-74
2022/07/30 12:32:41;;;;;;;0.28;0.22;;;30.70;1.00;;;;;;4997452;28;20178;-74
2022/07/30 12:35:07;;;;;;;0.55;0.38;;;31.60;1.00;;;;;;4997032;28;20179;-73
2022/07/30 12:37:33;;;;;;;0.03;0.03;;;32.90;1.00;;;;;;4996980;28;20732;-74
2022/07/30 12:40:05;;;;;;;0.75;0.32;;;33.50;1.00;;;;;;4996697;28;20043;-74
2022/07/30 12:42:31;;;;;;;0.82;0.40;;;33.60;1.00;;;;;;4997673;28;20046;-74
2022/07/30 12:44:57;;;;;;;0.70;0.52;;;33.60;1.00;;;;;;4996171;28;20547;-73
2022/07/30 12:47:30;;;;;;;0.22;0.15;;;34.10;1.00;;;;;;4996111;28;20054;-74
2022/07/30 12:49:57;;;;;;;1.05;0.22;;;34.60;1.00;;;;;;4994256;28;20053;-74
2022/07/30 12:52:36;;;;;;;0.30;0.13;;;34.60;1.00;;;;;;4995766;28;20401;-74
2022/07/30 12:55:11;;;;;;;0.13;0.13;;;34.40;1.00;;;;;;4995630;28;20045;-73
2022/07/30 12:58:00;;;;;;;0.45;0.32;;;34.00;1.00;;;;;;4995167;28;20058;-74
2022/07/30 13:00:28;;;;;;;0.43;0.30;;;33.40;1.00;;;;;;4994733;28;20120;-74